createdAt,value
2023-11-29T00:15:09.701Z,-1.92
2023-11-29T00:35:11.150Z,-2.18
2023-11-29T00:55:16.758Z,-2.49
2023-11-29T01:15:20.755Z,-2.10
2023-11-29T01:35:22.153Z,-2.20
2023-11-29T01:55:23.535Z,-2.19
2023-11-29T02:15:24.965Z,-1.76
2023-11-29T02:35:26.428Z,-1.97
2023-11-29T02:55:28.043Z,-2.19
2023-11-29T03:15:29.413Z,-2.01
2023-11-29T03:35:31.052Z,-1.90
2023-11-29T03:55:32.515Z,-2.24
2023-11-29T04:15:34.122Z,-2.56
2023-11-29T04:35:35.624Z,-2.59
2023-11-29T04:55:37.129Z,-2.93
2023-11-29T05:15:38.547Z,-2.96
2023-11-29T05:35:40.149Z,-2.58
2023-11-29T05:55:41.540Z,-2.67
2023-11-29T06:15:43.049Z,-2.55
2023-11-29T06:35:44.486Z,-2.09
2023-11-29T06:55:46.174Z,-2.09
2023-11-29T07:15:47.709Z,-2.16
2023-11-29T07:35:49.168Z,-2.16
2023-11-29T07:55:50.633Z,-2.30
2023-11-29T08:15:51.996Z,-2.28
2023-11-29T08:35:53.566Z,-1.68
2023-11-29T08:55:55.031Z,-1.22
2023-11-29T09:15:56.532Z,-1.24
2023-11-29T09:35:58.185Z,-0.95
2023-11-29T09:55:59.773Z,-0.99
2023-11-29T10:16:01.353Z,-1.02
2023-11-29T10:36:02.884Z,-1.08
2023-11-29T10:56:04.353Z,-1.10
2023-11-29T11:16:05.964Z,-0.77
2023-11-29T11:36:07.354Z,-0.31
2023-11-29T11:56:08.736Z,0.02
2023-11-29T12:16:10.174Z,0.31
2023-11-29T12:36:12.086Z,0.35
2023-11-29T12:56:13.977Z,0.27
2023-11-29T13:16:15.643Z,0.17
2023-11-29T13:36:17.508Z,0.24
2023-11-29T13:56:19.192Z,0.11
2023-11-29T14:16:20.792Z,-0.16
2023-11-29T14:36:22.452Z,-0.27
2023-11-29T14:56:29.107Z,-0.09
2023-11-29T15:16:31.319Z,-0.45
2023-11-29T15:36:32.918Z,-0.72
2023-11-29T15:56:34.788Z,-0.92
2023-11-29T16:16:36.358Z,-1.01
2023-11-29T16:36:37.904Z,-1.00
2023-11-29T16:56:39.405Z,-1.15
2023-11-29T17:16:42.644Z,-1.20
2023-11-29T17:36:44.407Z,-1.17
2023-11-29T17:56:45.989Z,-1.17
2023-11-29T18:16:47.456Z,-1.14
2023-11-29T18:36:48.916Z,-0.95
2023-11-29T18:56:50.720Z,-0.64
2023-11-29T19:16:52.265Z,-0.79
2023-11-29T19:36:53.827Z,-0.94
2023-11-29T19:56:55.297Z,-1.04
2023-11-29T20:16:56.765Z,-1.05
2023-11-29T20:36:58.340Z,-1.08
2023-11-29T20:56:59.773Z,-1.23
2023-11-29T21:17:01.166Z,-1.35
2023-11-29T21:37:02.786Z,-1.19
2023-11-29T21:57:04.267Z,-0.75
2023-11-29T22:17:05.845Z,-0.89
2023-11-29T22:37:07.237Z,-1.06
2023-11-29T22:57:08.620Z,-1.13
2023-11-29T23:17:10.446Z,-1.17
2023-11-29T23:37:12.000Z,-1.23
2023-11-29T23:57:13.470Z,-1.06
